sensor_id;sensor_type;location;lat;lon;timestamp;temperature;humidity
52869;DHT22;39100;53.480;6.158;2023-06-04T00:02:10;12.00;99.90
52869;DHT22;39100;53.480;6.158;2023-06-04T00:04:35;12.00;99.90
52869;DHT22;39100;53.480;6.158;2023-06-04T00:07:01;12.00;99.90
52869;DHT22;39100;53.480;6.158;2023-06-04T00:09:27;11.90;99.90
52869;DHT22;39100;53.480;6.158;2023-06-04T00:11:52;11.90;99.90
52869;DHT22;39100;53.480;6.158;2023-06-04T00:14:18;11.90;99.90
52869;DHT22;39100;53.480;6.158;2023-06-04T00:16:43;11.90;99.90
52869;DHT22;39100;53.480;6.158;2023-06-04T00:19:09;11.90;99.90
52869;DHT22;39100;53.480;6.158;2023-06-04T00:21:35;11.90;99.90
52869;DHT22;39100;53.480;6.158;2023-06-04T00:24:01;11.90;99.90
52869;DHT22;39100;53.480;6.158;2023-06-04T00:26:27;11.90;99.90
52869;DHT22;39100;53.480;6.158;2023-06-04T00:28:56;11.90;99.90
52869;DHT22;39100;53.480;6.158;2023-06-04T00:31:22;11.90;99.90
52869;DHT22;39100;53.480;6.158;2023-06-04T00:33:48;11.90;99.90
52869;DHT22;39100;53.480;6.158;2023-06-04T00:36:13;11.90;99.90
52869;DHT22;39100;53.480;6.158;2023-06-04T00:38:39;11.90;99.90
52869;DHT22;39100;53.480;6.158;2023-06-04T00:41:05;11.90;99.90
52869;DHT22;39100;53.480;6.158;2023-06-04T00:43:30;11.90;99.90
52869;DHT22;39100;53.480;6.158;2023-06-04T00:45:58;11.80;99.90
52869;DHT22;39100;53.480;6.158;2023-06-04T00:48:24;11.80;99.90
52869;DHT22;39100;53.480;6.158;2023-06-04T00:50:53;11.80;99.90
52869;DHT22;39100;53.480;6.158;2023-06-04T00:53:20;11.70;99.90
52869;DHT22;39100;53.480;6.158;2023-06-04T00:55:46;11.70;99.90
52869;DHT22;39100;53.480;6.158;2023-06-04T00:58:12;11.70;99.90
52869;DHT22;39100;53.480;6.158;2023-06-04T01:00:41;11.70;99.90
52869;DHT22;39100;53.480;6.158;2023-06-04T01:03:13;11.70;99.90
52869;DHT22;39100;53.480;6.158;2023-06-04T01:05:51;11.70;99.90
52869;DHT22;39100;53.480;6.158;2023-06-04T01:08:22;11.60;99.90
52869;DHT22;39100;53.480;6.158;2023-06-04T01:10:55;11.60;99.90
52869;DHT22;39100;53.480;6.158;2023-06-04T01:13:21;11.60;99.90
52869;DHT22;39100;53.480;6.158;2023-06-04T01:15:47;11.60;99.90
52869;DHT22;39100;53.480;6.158;2023-06-04T01:18:16;11.50;99.90
52869;DHT22;39100;53.480;6.158;2023-06-04T01:21:07;11.50;99.90
52869;DHT22;39100;53.480;6.158;2023-06-04T01:23:50;11.50;99.90
52869;DHT22;39100;53.480;6.158;2023-06-04T01:26:30;11.50;99.90
52869;DHT22;39100;53.480;6.158;2023-06-04T01:28:57;11.40;99.90
52869;DHT22;39100;53.480;6.158;2023-06-04T01:31:23;11.40;99.90
52869;DHT22;39100;53.480;6.158;2023-06-04T01:33:53;11.30;99.90
52869;DHT22;39100;53.480;6.158;2023-06-04T01:36:20;11.30;99.90
52869;DHT22;39100;53.480;6.158;2023-06-04T01:38:45;11.30;99.90
52869;DHT22;39100;53.480;6.158;2023-06-04T01:41:11;11.30;99.90
52869;DHT22;39100;53.480;6.158;2023-06-04T01:43:37;11.30;99.90
52869;DHT22;39100;53.480;6.158;2023-06-04T01:46:03;11.30;99.90
52869;DHT22;39100;53.480;6.158;2023-06-04T01:48:29;11.20;99.90
52869;DHT22;39100;53.480;6.158;2023-06-04T01:50:55;11.20;99.90
52869;DHT22;39100;53.480;6.158;2023-06-04T01:53:20;11.20;99.90
52869;DHT22;39100;53.480;6.158;2023-06-04T01:55:46;11.10;99.90
52869;DHT22;39100;53.480;6.158;2023-06-04T01:58:15;11.10;99.90
52869;DHT22;39100;53.480;6.158;2023-06-04T02:00:43;11.10;99.90
52869;DHT22;39100;53.480;6.158;2023-06-04T02:03:09;11.10;99.90
52869;DHT22;39100;53.480;6.158;2023-06-04T02:05:36;11.10;99.90
52869;DHT22;39100;53.480;6.158;2023-06-04T02:08:02;11.10;99.90
52869;DHT22;39100;53.480;6.158;2023-06-04T02:10:30;11.00;99.90
52869;DHT22;39100;53.480;6.158;2023-06-04T02:13:01;11.00;99.90
52869;DHT22;39100;53.480;6.158;2023-06-04T02:15:31;11.00;99.90
52869;DHT22;39100;53.480;6.158;2023-06-04T02:17:59;11.00;99.90
52869;DHT22;39100;53.480;6.158;2023-06-04T02:20:38;11.00;99.90
52869;DHT22;39100;53.480;6.158;2023-06-04T02:23:03;11.00;99.90
52869;DHT22;39100;53.480;6.158;2023-06-04T02:25:29;11.00;99.90
52869;DHT22;39100;53.480;6.158;2023-06-04T02:27:54;11.00;99.90
52869;DHT22;39100;53.480;6.158;2023-06-04T02:30:20;10.90;99.90
52869;DHT22;39100;53.480;6.158;2023-06-04T02:32:45;10.90;99.90
52869;DHT22;39100;53.480;6.158;2023-06-04T02:35:12;10.90;99.90
52869;DHT22;39100;53.480;6.158;2023-06-04T02:37:38;10.90;99.90
52869;DHT22;39100;53.480;6.158;2023-06-04T02:40:04;11.00;99.90
52869;DHT22;39100;53.480;6.158;2023-06-04T02:42:29;10.90;99.90
52869;DHT22;39100;53.480;6.158;2023-06-04T02:44:55;11.00;99.90
52869;DHT22;39100;53.480;6.158;2023-06-04T02:47:20;11.00;99.90
52869;DHT22;39100;53.480;6.158;2023-06-04T02:49:46;11.00;99.90
52869;DHT22;39100;53.480;6.158;2023-06-04T02:52:12;11.00;99.90
52869;DHT22;39100;53.480;6.158;2023-06-04T02:54:37;11.00;99.90
52869;DHT22;39100;53.480;6.158;2023-06-04T02:57:03;11.00;99.90
52869;DHT22;39100;53.480;6.158;2023-06-04T02:59:29;11.00;99.90
52869;DHT22;39100;53.480;6.158;2023-06-04T03:01:55;11.00;99.90
52869;DHT22;39100;53.480;6.158;2023-06-04T03:04:21;11.00;99.90
52869;DHT22;39100;53.480;6.158;2023-06-04T03:06:46;11.00;99.90
52869;DHT22;39100;53.480;6.158;2023-06-04T03:09:12;11.00;99.90
52869;DHT22;39100;53.480;6.158;2023-06-04T03:11:38;11.10;99.90
52869;DHT22;39100;53.480;6.158;2023-06-04T03:14:04;11.10;99.90
52869;DHT22;39100;53.480;6.158;2023-06-04T03:16:30;11.10;99.90
52869;DHT22;39100;53.480;6.158;2023-06-04T03:18:56;11.10;99.90
52869;DHT22;39100;53.480;6.158;2023-06-04T03:21:22;11.10;99.90
52869;DHT22;39100;53.480;6.158;2023-06-04T03:23:50;11.10;99.90
52869;DHT22;39100;53.480;6.158;2023-06-04T03:26:15;11.20;99.90
52869;DHT22;39100;53.480;6.158;2023-06-04T03:28:41;11.20;99.90
52869;DHT22;39100;53.480;6.158;2023-06-04T03:31:07;11.20;99.90
52869;DHT22;39100;53.480;6.158;2023-06-04T03:33:32;11.20;99.90
52869;DHT22;39100;53.480;6.158;2023-06-04T03:35:58;11.30;99.90
52869;DHT22;39100;53.480;6.158;2023-06-04T03:38:24;11.30;99.90
52869;DHT22;39100;53.480;6.158;2023-06-04T03:40:50;11.30;99.90
52869;DHT22;39100;53.480;6.158;2023-06-04T03:43:18;11.30;99.90
52869;DHT22;39100;53.480;6.158;2023-06-04T03:45:44;11.30;99.90
52869;DHT22;39100;53.480;6.158;2023-06-04T03:48:09;11.30;99.90
52869;DHT22;39100;53.480;6.158;2023-06-04T03:50:35;11.30;99.90
52869;DHT22;39100;53.480;6.158;2023-06-04T03:53:00;11.20;99.90
52869;DHT22;39100;53.480;6.158;2023-06-04T03:55:26;11.30;99.90
52869;DHT22;39100;53.480;6.158;2023-06-04T03:57:52;11.30;99.90
52869;DHT22;39100;53.480;6.158;2023-06-04T04:00:18;11.30;99.90
52869;DHT22;39100;53.480;6.158;2023-06-04T04:02:45;11.30;99.90
52869;DHT22;39100;53.480;6.158;2023-06-04T04:05:11;11.30;99.90
52869;DHT22;39100;53.480;6.158;2023-06-04T04:07:36;11.30;99.90
52869;DHT22;39100;53.480;6.158;2023-06-04T04:10:02;11.40;99.90
52869;DHT22;39100;53.480;6.158;2023-06-04T04:12:30;11.40;99.90
52869;DHT22;39100;53.480;6.158;2023-06-04T04:14:55;11.40;99.90
52869;DHT22;39100;53.480;6.158;2023-06-04T04:17:21;11.40;99.90
52869;DHT22;39100;53.480;6.158;2023-06-04T04:19:46;11.40;99.90
52869;DHT22;39100;53.480;6.158;2023-06-04T04:22:12;11.50;99.90
52869;DHT22;39100;53.480;6.158;2023-06-04T04:24:43;11.50;99.90
52869;DHT22;39100;53.480;6.158;2023-06-04T04:27:09;11.50;99.90
52869;DHT22;39100;53.480;6.158;2023-06-04T04:29:36;11.50;99.90
52869;DHT22;39100;53.480;6.158;2023-06-04T04:32:02;11.50;99.90
52869;DHT22;39100;53.480;6.158;2023-06-04T04:34:36;11.60;99.90
52869;DHT22;39100;53.480;6.158;2023-06-04T04:37:05;11.60;99.90
52869;DHT22;39100;53.480;6.158;2023-06-04T04:39:34;11.70;99.90
52869;DHT22;39100;53.480;6.158;2023-06-04T04:42:01;11.70;99.90
52869;DHT22;39100;53.480;6.158;2023-06-04T04:44:27;11.80;99.90
52869;DHT22;39100;53.480;6.158;2023-06-04T04:46:52;11.80;99.90
52869;DHT22;39100;53.480;6.158;2023-06-04T04:49:18;11.90;99.90
52869;DHT22;39100;53.480;6.158;2023-06-04T04:51:44;12.00;99.90
52869;DHT22;39100;53.480;6.158;2023-06-04T04:54:09;12.00;99.90
52869;DHT22;39100;53.480;6.158;2023-06-04T04:56:35;12.10;99.90
52869;DHT22;39100;53.480;6.158;2023-06-04T04:59:01;12.20;99.90
52869;DHT22;39100;53.480;6.158;2023-06-04T05:01:27;12.30;99.90
52869;DHT22;39100;53.480;6.158;2023-06-04T05:03:52;12.40;99.90
52869;DHT22;39100;53.480;6.158;2023-06-04T05:06:18;12.50;99.90
52869;DHT22;39100;53.480;6.158;2023-06-04T05:08:44;12.60;99.90
52869;DHT22;39100;53.480;6.158;2023-06-04T05:11:10;12.70;99.90
52869;DHT22;39100;53.480;6.158;2023-06-04T05:13:36;12.80;99.90
52869;DHT22;39100;53.480;6.158;2023-06-04T05:16:02;13.00;99.90
52869;DHT22;39100;53.480;6.158;2023-06-04T05:18:37;13.10;99.90
52869;DHT22;39100;53.480;6.158;2023-06-04T05:21:06;13.20;99.90
52869;DHT22;39100;53.480;6.158;2023-06-04T05:23:32;13.30;99.90
52869;DHT22;39100;53.480;6.158;2023-06-04T05:26:00;13.40;99.90
52869;DHT22;39100;53.480;6.158;2023-06-04T05:28:27;13.50;99.90
52869;DHT22;39100;53.480;6.158;2023-06-04T05:30:53;13.70;99.90
52869;DHT22;39100;53.480;6.158;2023-06-04T05:33:24;13.80;99.90
52869;DHT22;39100;53.480;6.158;2023-06-04T05:35:50;14.00;99.90
52869;DHT22;39100;53.480;6.158;2023-06-04T05:38:26;14.10;99.90
52869;DHT22;39100;53.480;6.158;2023-06-04T05:40:54;14.20;99.90
52869;DHT22;39100;53.480;6.158;2023-06-04T05:43:20;14.30;99.90
52869;DHT22;39100;53.480;6.158;2023-06-04T05:45:46;14.50;99.90
52869;DHT22;39100;53.480;6.158;2023-06-04T05:48:12;14.60;99.90
52869;DHT22;39100;53.480;6.158;2023-06-04T05:50:38;14.80;99.90
52869;DHT22;39100;53.480;6.158;2023-06-04T05:53:03;14.90;99.90
52869;DHT22;39100;53.480;6.158;2023-06-04T05:55:29;15.20;99.90
52869;DHT22;39100;53.480;6.158;2023-06-04T05:57:55;15.20;99.90
52869;DHT22;39100;53.480;6.158;2023-06-04T06:00:21;15.20;99.90
52869;DHT22;39100;53.480;6.158;2023-06-04T06:02:49;15.30;99.90
52869;DHT22;39100;53.480;6.158;2023-06-04T06:05:15;15.40;99.90
52869;DHT22;39100;53.480;6.158;2023-06-04T06:07:41;15.50;99.90
52869;DHT22;39100;53.480;6.158;2023-06-04T06:10:07;15.60;99.90
52869;DHT22;39100;53.480;6.158;2023-06-04T06:12:33;15.70;99.90
52869;DHT22;39100;53.480;6.158;2023-06-04T06:14:59;15.80;99.90
52869;DHT22;39100;53.480;6.158;2023-06-04T06:17:25;16.00;99.90
52869;DHT22;39100;53.480;6.158;2023-06-04T06:19:51;16.10;99.90
52869;DHT22;39100;53.480;6.158;2023-06-04T06:22:17;16.20;99.90
52869;DHT22;39100;53.480;6.158;2023-06-04T06:24:43;16.30;99.90
52869;DHT22;39100;53.480;6.158;2023-06-04T06:27:10;16.30;99.90
52869;DHT22;39100;53.480;6.158;2023-06-04T06:29:36;16.30;99.90
52869;DHT22;39100;53.480;6.158;2023-06-04T06:32:02;16.30;99.90
52869;DHT22;39100;53.480;6.158;2023-06-04T06:34:28;16.40;99.90
52869;DHT22;39100;53.480;6.158;2023-06-04T06:36:54;16.50;99.90
52869;DHT22;39100;53.480;6.158;2023-06-04T06:39:19;16.60;99.90
52869;DHT22;39100;53.480;6.158;2023-06-04T06:41:45;16.70;99.90
52869;DHT22;39100;53.480;6.158;2023-06-04T06:44:11;16.60;99.90
52869;DHT22;39100;53.480;6.158;2023-06-04T06:46:37;16.70;99.90
52869;DHT22;39100;53.480;6.158;2023-06-04T06:49:02;16.80;99.90
52869;DHT22;39100;53.480;6.158;2023-06-04T06:51:28;16.90;99.90
52869;DHT22;39100;53.480;6.158;2023-06-04T06:53:53;16.90;99.90
52869;DHT22;39100;53.480;6.158;2023-06-04T06:56:19;17.00;99.90
52869;DHT22;39100;53.480;6.158;2023-06-04T06:58:45;17.20;99.90
52869;DHT22;39100;53.480;6.158;2023-06-04T07:01:11;17.10;99.90
52869;DHT22;39100;53.480;6.158;2023-06-04T07:03:37;17.10;99.90
52869;DHT22;39100;53.480;6.158;2023-06-04T07:06:04;17.60;99.90
52869;DHT22;39100;53.480;6.158;2023-06-04T07:08:29;17.30;99.90
52869;DHT22;39100;53.480;6.158;2023-06-04T07:10:55;17.30;99.90
52869;DHT22;39100;53.480;6.158;2023-06-04T07:13:20;17.50;99.90
52869;DHT22;39100;53.480;6.158;2023-06-04T07:15:46;17.50;99.90
52869;DHT22;39100;53.480;6.158;2023-06-04T07:18:12;17.60;99.90
52869;DHT22;39100;53.480;6.158;2023-06-04T07:20:37;17.50;99.90
52869;DHT22;39100;53.480;6.158;2023-06-04T07:23:03;17.60;99.90
52869;DHT22;39100;53.480;6.158;2023-06-04T07:25:29;18.00;99.90
52869;DHT22;39100;53.480;6.158;2023-06-04T07:27:55;17.70;99.90
52869;DHT22;39100;53.480;6.158;2023-06-04T07:30:24;17.80;99.90
52869;DHT22;39100;53.480;6.158;2023-06-04T07:32:49;17.90;99.90
52869;DHT22;39100;53.480;6.158;2023-06-04T07:35:15;18.10;99.90
52869;DHT22;39100;53.480;6.158;2023-06-04T07:37:41;18.10;99.90
52869;DHT22;39100;53.480;6.158;2023-06-04T07:40:10;18.10;99.90
52869;DHT22;39100;53.480;6.158;2023-06-04T07:42:36;18.30;99.90
52869;DHT22;39100;53.480;6.158;2023-06-04T07:45:02;18.40;99.90
52869;DHT22;39100;53.480;6.158;2023-06-04T07:47:28;18.50;99.90
52869;DHT22;39100;53.480;6.158;2023-06-04T07:49:53;18.60;99.90
52869;DHT22;39100;53.480;6.158;2023-06-04T07:52:19;18.80;99.90
52869;DHT22;39100;53.480;6.158;2023-06-04T07:54:44;18.80;99.90
52869;DHT22;39100;53.480;6.158;2023-06-04T07:57:10;19.20;99.90
52869;DHT22;39100;53.480;6.158;2023-06-04T07:59:36;19.00;99.90
52869;DHT22;39100;53.480;6.158;2023-06-04T08:02:01;18.90;99.90
52869;DHT22;39100;53.480;6.158;2023-06-04T08:04:27;19.20;99.90
52869;DHT22;39100;53.480;6.158;2023-06-04T08:06:52;19.00;99.90
52869;DHT22;39100;53.480;6.158;2023-06-04T08:09:18;19.10;99.90
52869;DHT22;39100;53.480;6.158;2023-06-04T08:11:44;19.20;99.90
52869;DHT22;39100;53.480;6.158;2023-06-04T08:14:13;19.20;99.90
52869;DHT22;39100;53.480;6.158;2023-06-04T08:16:39;19.20;99.90
52869;DHT22;39100;53.480;6.158;2023-06-04T08:19:08;19.10;99.90
52869;DHT22;39100;53.480;6.158;2023-06-04T08:21:34;19.80;99.90
52869;DHT22;39100;53.480;6.158;2023-06-04T08:24:00;19.30;99.90
52869;DHT22;39100;53.480;6.158;2023-06-04T08:26:26;19.40;99.90
52869;DHT22;39100;53.480;6.158;2023-06-04T08:28:55;19.60;99.90
52869;DHT22;39100;53.480;6.158;2023-06-04T08:31:20;19.90;99.90
52869;DHT22;39100;53.480;6.158;2023-06-04T08:33:47;20.20;99.90
52869;DHT22;39100;53.480;6.158;2023-06-04T08:36:13;19.90;99.90
52869;DHT22;39100;53.480;6.158;2023-06-04T08:38:39;19.90;99.90
52869;DHT22;39100;53.480;6.158;2023-06-04T08:41:29;20.10;99.90
52869;DHT22;39100;53.480;6.158;2023-06-04T08:43:57;20.10;99.90
52869;DHT22;39100;53.480;6.158;2023-06-04T08:46:23;20.20;99.90
52869;DHT22;39100;53.480;6.158;2023-06-04T08:48:50;20.60;99.90
52869;DHT22;39100;53.480;6.158;2023-06-04T08:51:15;20.80;99.90
52869;DHT22;39100;53.480;6.158;2023-06-04T08:53:42;20.90;99.90
52869;DHT22;39100;53.480;6.158;2023-06-04T08:56:08;21.00;99.90
52869;DHT22;39100;53.480;6.158;2023-06-04T08:58:36;21.00;99.90
52869;DHT22;39100;53.480;6.158;2023-06-04T09:01:02;21.10;99.90
52869;DHT22;39100;53.480;6.158;2023-06-04T09:03:31;21.20;99.90
52869;DHT22;39100;53.480;6.158;2023-06-04T09:05:59;21.10;99.90
52869;DHT22;39100;53.480;6.158;2023-06-04T09:08:26;21.00;99.90
52869;DHT22;39100;53.480;6.158;2023-06-04T09:10:54;21.20;99.90
52869;DHT22;39100;53.480;6.158;2023-06-04T09:13:22;21.90;99.90
52869;DHT22;39100;53.480;6.158;2023-06-04T09:16:04;21.00;99.90
52869;DHT22;39100;53.480;6.158;2023-06-04T09:18:31;20.80;99.90
52869;DHT22;39100;53.480;6.158;2023-06-04T09:21:04;20.90;99.90
52869;DHT22;39100;53.480;6.158;2023-06-04T09:23:31;21.00;99.90
52869;DHT22;39100;53.480;6.158;2023-06-04T09:26:06;21.10;99.90
52869;DHT22;39100;53.480;6.158;2023-06-04T09:28:33;21.30;99.90
52869;DHT22;39100;53.480;6.158;2023-06-04T09:30:58;21.10;99.90
52869;DHT22;39100;53.480;6.158;2023-06-04T09:33:24;21.30;99.90
52869;DHT22;39100;53.480;6.158;2023-06-04T09:35:56;20.90;99.90
52869;DHT22;39100;53.480;6.158;2023-06-04T09:38:22;21.00;99.90
52869;DHT22;39100;53.480;6.158;2023-06-04T09:40:47;21.00;99.90
52869;DHT22;39100;53.480;6.158;2023-06-04T09:43:22;21.00;99.90
52869;DHT22;39100;53.480;6.158;2023-06-04T09:45:49;21.10;99.90
52869;DHT22;39100;53.480;6.158;2023-06-04T09:48:20;21.10;99.90
52869;DHT22;39100;53.480;6.158;2023-06-04T09:50:47;21.20;99.90
52869;DHT22;39100;53.480;6.158;2023-06-04T09:53:16;21.20;99.90
52869;DHT22;39100;53.480;6.158;2023-06-04T09:55:42;21.30;99.90
52869;DHT22;39100;53.480;6.158;2023-06-04T09:58:10;21.30;99.90
52869;DHT22;39100;53.480;6.158;2023-06-04T10:00:36;21.30;99.90
52869;DHT22;39100;53.480;6.158;2023-06-04T10:03:03;21.90;99.90
52869;DHT22;39100;53.480;6.158;2023-06-04T10:05:32;21.40;99.90
52869;DHT22;39100;53.480;6.158;2023-06-04T10:08:03;21.40;99.90
52869;DHT22;39100;53.480;6.158;2023-06-04T10:10:34;21.40;99.90
52869;DHT22;39100;53.480;6.158;2023-06-04T10:13:05;21.30;99.90
52869;DHT22;39100;53.480;6.158;2023-06-04T10:15:32;21.50;99.90
52869;DHT22;39100;53.480;6.158;2023-06-04T10:18:00;21.30;99.90
52869;DHT22;39100;53.480;6.158;2023-06-04T10:20:27;21.20;99.90
52869;DHT22;39100;53.480;6.158;2023-06-04T10:22:54;21.00;99.90
52869;DHT22;39100;53.480;6.158;2023-06-04T10:25:20;21.00;99.90
52869;DHT22;39100;53.480;6.158;2023-06-04T10:27:46;21.00;99.90
52869;DHT22;39100;53.480;6.158;2023-06-04T10:30:12;21.20;99.90
52869;DHT22;39100;53.480;6.158;2023-06-04T10:32:38;21.00;99.90
52869;DHT22;39100;53.480;6.158;2023-06-04T10:35:05;21.60;99.90
52869;DHT22;39100;53.480;6.158;2023-06-04T10:37:33;21.10;99.90
52869;DHT22;39100;53.480;6.158;2023-06-04T10:39:58;21.10;99.90
52869;DHT22;39100;53.480;6.158;2023-06-04T10:42:25;21.30;99.90
52869;DHT22;39100;53.480;6.158;2023-06-04T10:44:52;21.40;99.90
52869;DHT22;39100;53.480;6.158;2023-06-04T10:47:22;21.40;99.90
52869;DHT22;39100;53.480;6.158;2023-06-04T10:49:53;21.90;99.90
52869;DHT22;39100;53.480;6.158;2023-06-04T10:52:20;21.50;99.90
52869;DHT22;39100;53.480;6.158;2023-06-04T10:54:46;21.50;99.90
52869;DHT22;39100;53.480;6.158;2023-06-04T10:57:19;21.50;99.90
52869;DHT22;39100;53.480;6.158;2023-06-04T10:59:58;21.40;99.90
52869;DHT22;39100;53.480;6.158;2023-06-04T11:02:24;22.00;99.90
52869;DHT22;39100;53.480;6.158;2023-06-04T11:05:03;21.40;99.90
52869;DHT22;39100;53.480;6.158;2023-06-04T11:07:44;21.40;99.90
52869;DHT22;39100;53.480;6.158;2023-06-04T11:10:12;21.50;99.90
52869;DHT22;39100;53.480;6.158;2023-06-04T11:12:46;21.50;99.90
52869;DHT22;39100;53.480;6.158;2023-06-04T11:15:13;21.20;99.90
52869;DHT22;39100;53.480;6.158;2023-06-04T11:17:55;21.30;99.90
52869;DHT22;39100;53.480;6.158;2023-06-04T11:20:23;21.20;99.90
52869;DHT22;39100;53.480;6.158;2023-06-04T11:22:54;21.30;99.90
52869;DHT22;39100;53.480;6.158;2023-06-04T11:25:21;21.30;99.90
52869;DHT22;39100;53.480;6.158;2023-06-04T11:27:48;21.40;99.90
52869;DHT22;39100;53.480;6.158;2023-06-04T11:30:14;21.40;99.90
52869;DHT22;39100;53.480;6.158;2023-06-04T11:32:40;21.60;99.90
52869;DHT22;39100;53.480;6.158;2023-06-04T11:35:06;21.60;99.90
52869;DHT22;39100;53.480;6.158;2023-06-04T11:37:32;21.80;99.90
52869;DHT22;39100;53.480;6.158;2023-06-04T11:39:58;22.00;99.90
52869;DHT22;39100;53.480;6.158;2023-06-04T11:42:27;22.40;99.90
52869;DHT22;39100;53.480;6.158;2023-06-04T11:44:56;22.30;99.90
52869;DHT22;39100;53.480;6.158;2023-06-04T11:47:23;22.90;99.90
52869;DHT22;39100;53.480;6.158;2023-06-04T11:49:54;22.60;99.90
52869;DHT22;39100;53.480;6.158;2023-06-04T11:52:20;22.80;99.90
52869;DHT22;39100;53.480;6.158;2023-06-04T11:54:46;23.10;99.90
52869;DHT22;39100;53.480;6.158;2023-06-04T11:57:12;23.00;99.90
52869;DHT22;39100;53.480;6.158;2023-06-04T11:59:38;23.20;99.90
52869;DHT22;39100;53.480;6.158;2023-06-04T12:02:04;23.40;99.90
52869;DHT22;39100;53.480;6.158;2023-06-04T12:04:31;23.70;99.90
52869;DHT22;39100;53.480;6.158;2023-06-04T12:07:02;23.80;99.90
52869;DHT22;39100;53.480;6.158;2023-06-04T12:09:32;23.90;99.90
52869;DHT22;39100;53.480;6.158;2023-06-04T12:12:04;24.10;99.90
52869;DHT22;39100;53.480;6.158;2023-06-04T12:14:30;24.20;99.90
52869;DHT22;39100;53.480;6.158;2023-06-04T12:17:09;24.20;99.90
52869;DHT22;39100;53.480;6.158;2023-06-04T12:19:46;24.20;99.90
52869;DHT22;39100;53.480;6.158;2023-06-04T12:22:13;24.30;99.90
52869;DHT22;39100;53.480;6.158;2023-06-04T12:24:55;24.00;99.90
52869;DHT22;39100;53.480;6.158;2023-06-04T12:27:23;24.00;99.90
52869;DHT22;39100;53.480;6.158;2023-06-04T12:30:09;23.80;99.90
52869;DHT22;39100;53.480;6.158;2023-06-04T12:32:35;23.70;99.90
52869;DHT22;39100;53.480;6.158;2023-06-04T12:35:01;24.00;99.90
52869;DHT22;39100;53.480;6.158;2023-06-04T12:37:26;23.30;99.90
52869;DHT22;39100;53.480;6.158;2023-06-04T12:39:53;23.20;99.90
52869;DHT22;39100;53.480;6.158;2023-06-04T12:42:19;23.20;99.90
52869;DHT22;39100;53.480;6.158;2023-06-04T12:44:46;23.00;99.90
52869;DHT22;39100;53.480;6.158;2023-06-04T12:47:11;23.00;99.90
52869;DHT22;39100;53.480;6.158;2023-06-04T12:49:37;22.80;99.90
52869;DHT22;39100;53.480;6.158;2023-06-04T12:52:03;23.00;99.90
52869;DHT22;39100;53.480;6.158;2023-06-04T12:54:29;22.90;99.90
52869;DHT22;39100;53.480;6.158;2023-06-04T12:56:56;23.30;99.90
52869;DHT22;39100;53.480;6.158;2023-06-04T12:59:22;23.00;99.90
52869;DHT22;39100;53.480;6.158;2023-06-04T13:01:49;22.90;99.90
52869;DHT22;39100;53.480;6.158;2023-06-04T13:04:14;22.70;99.90
52869;DHT22;39100;53.480;6.158;2023-06-04T13:06:40;23.10;99.90
52869;DHT22;39100;53.480;6.158;2023-06-04T13:09:07;22.50;99.90
52869;DHT22;39100;53.480;6.158;2023-06-04T13:11:37;22.50;99.90
52869;DHT22;39100;53.480;6.158;2023-06-04T13:14:03;22.50;99.90
52869;DHT22;39100;53.480;6.158;2023-06-04T13:16:29;22.50;99.90
52869;DHT22;39100;53.480;6.158;2023-06-04T13:18:54;22.40;99.90
52869;DHT22;39100;53.480;6.158;2023-06-04T13:21:20;22.50;99.90
52869;DHT22;39100;53.480;6.158;2023-06-04T13:23:45;23.00;99.90
52869;DHT22;39100;53.480;6.158;2023-06-04T13:26:11;22.50;99.90
52869;DHT22;39100;53.480;6.158;2023-06-04T13:28:38;22.30;99.90
52869;DHT22;39100;53.480;6.158;2023-06-04T13:31:03;22.60;99.90
52869;DHT22;39100;53.480;6.158;2023-06-04T13:33:29;22.30;99.90
52869;DHT22;39100;53.480;6.158;2023-06-04T13:35:54;22.20;99.90
52869;DHT22;39100;53.480;6.158;2023-06-04T13:38:20;22.20;99.90
52869;DHT22;39100;53.480;6.158;2023-06-04T13:40:45;22.10;99.90
52869;DHT22;39100;53.480;6.158;2023-06-04T13:43:11;22.20;99.90
52869;DHT22;39100;53.480;6.158;2023-06-04T13:45:37;22.00;99.90
52869;DHT22;39100;53.480;6.158;2023-06-04T13:48:03;22.00;99.90
52869;DHT22;39100;53.480;6.158;2023-06-04T13:50:32;21.90;99.90
52869;DHT22;39100;53.480;6.158;2023-06-04T13:52:58;22.30;99.90
52869;DHT22;39100;53.480;6.158;2023-06-04T13:55:23;21.90;99.90
52869;DHT22;39100;53.480;6.158;2023-06-04T13:57:49;22.00;99.90
52869;DHT22;39100;53.480;6.158;2023-06-04T14:00:15;22.10;99.90
52869;DHT22;39100;53.480;6.158;2023-06-04T14:02:41;22.00;99.90
52869;DHT22;39100;53.480;6.158;2023-06-04T14:05:06;22.20;99.90
52869;DHT22;39100;53.480;6.158;2023-06-04T14:07:33;22.20;99.90
52869;DHT22;39100;53.480;6.158;2023-06-04T14:09:58;21.80;99.90
52869;DHT22;39100;53.480;6.158;2023-06-04T14:12:24;21.80;99.90
52869;DHT22;39100;53.480;6.158;2023-06-04T14:14:50;21.80;99.90
52869;DHT22;39100;53.480;6.158;2023-06-04T14:17:16;21.60;99.90
52869;DHT22;39100;53.480;6.158;2023-06-04T14:19:42;21.60;99.90
52869;DHT22;39100;53.480;6.158;2023-06-04T14:22:09;21.50;99.90
52869;DHT22;39100;53.480;6.158;2023-06-04T14:24:34;21.40;99.90
52869;DHT22;39100;53.480;6.158;2023-06-04T14:27:00;21.40;99.90
52869;DHT22;39100;53.480;6.158;2023-06-04T14:29:26;21.60;99.90
52869;DHT22;39100;53.480;6.158;2023-06-04T14:31:51;21.60;99.90
52869;DHT22;39100;53.480;6.158;2023-06-04T14:34:17;21.50;99.90
52869;DHT22;39100;53.480;6.158;2023-06-04T14:36:42;21.40;99.90
52869;DHT22;39100;53.480;6.158;2023-06-04T14:39:08;21.90;99.90
52869;DHT22;39100;53.480;6.158;2023-06-04T14:41:33;21.40;99.90
52869;DHT22;39100;53.480;6.158;2023-06-04T14:43:59;21.50;99.90
52869;DHT22;39100;53.480;6.158;2023-06-04T14:46:25;21.70;99.90
52869;DHT22;39100;53.480;6.158;2023-06-04T14:48:51;21.40;99.90
52869;DHT22;39100;53.480;6.158;2023-06-04T14:51:16;21.20;99.90
52869;DHT22;39100;53.480;6.158;2023-06-04T14:53:42;21.10;99.90
52869;DHT22;39100;53.480;6.158;2023-06-04T14:56:08;21.00;99.90
52869;DHT22;39100;53.480;6.158;2023-06-04T14:58:33;20.90;99.90
52869;DHT22;39100;53.480;6.158;2023-06-04T15:01:00;20.90;99.90
52869;DHT22;39100;53.480;6.158;2023-06-04T15:03:29;20.70;99.90
52869;DHT22;39100;53.480;6.158;2023-06-04T15:05:54;21.00;99.90
52869;DHT22;39100;53.480;6.158;2023-06-04T15:08:20;20.50;99.90
52869;DHT22;39100;53.480;6.158;2023-06-04T15:10:46;20.40;99.90
52869;DHT22;39100;53.480;6.158;2023-06-04T15:13:12;20.40;99.90
52869;DHT22;39100;53.480;6.158;2023-06-04T15:15:37;20.30;99.90
52869;DHT22;39100;53.480;6.158;2023-06-04T15:18:03;20.50;99.90
52869;DHT22;39100;53.480;6.158;2023-06-04T15:20:28;20.90;99.90
52869;DHT22;39100;53.480;6.158;2023-06-04T15:22:54;20.20;99.90
52869;DHT22;39100;53.480;6.158;2023-06-04T15:25:20;20.20;99.90
52869;DHT22;39100;53.480;6.158;2023-06-04T15:27:46;20.10;99.90
52869;DHT22;39100;53.480;6.158;2023-06-04T15:30:11;19.90;99.90